Airfield :
LOGIN :

Register | Disclaimer

   EN    FR    IT 

 










Legend :    VFR   Marginal VFR   IFR   Intensive IFR   Very Intensive IFR
Visi :
Ceiling :
>= 8 km
>= 3000ft
5 to 8 km
1000 to 3000 ft
1500m to 5 km
500 to 1000 ft
800 to 1500m
200 to 500 ft
< 800m
< 200 ft
Symbols :   Thunderstorms  Fog  Heavy snow  Heavy precipitations  Wind > 20 kt
SIGMETs :     Misc.  Thunderstorms  Icing  Turbulence  Mountain Waves  Volcanic Ashes






- Airport Elevation : 53 ft
- IATA code : HAM


EDDH - Hamburg

CURRENT METAR :
  • 100320Z 16004KT 120V180 CAVOK 17/09 Q1002 NOSIG

EXPIRED METARs :
  • 100250Z 15007KT CAVOK 16/09 Q1002 NOSIG
  • 100220Z 15007KT CAVOK 17/09 Q1001 NOSIG
  • 100150Z 14006KT CAVOK 16/10 Q1001 NOSIG
  • 100120Z 15008KT CAVOK 18/10 Q1001 NOSIG
  • 100050Z 15009KT CAVOK 19/11 Q1001 NOSIG

TAF TAF EDDH
Valid from the 10 at 00:00 until the 11 at 06:00 UTC


092300Z 1000/1106 16010KT CAVOK
PROB30
TEMPO 1007/1012 18015G30KT TSRA SCT045CB
BECMG 1009/1012 24012KT
PROB40
TEMPO 1012/1016 23015G25KT SCT030CB
BECMG 1016/1018 33005KT
TEMPO 1020/1102 RA
BECMG 1023/1101 03005KT
PROB30
TEMPO 1102/1106 4500 RA BKN010



MET'MAP, your aeronautical weather chart ! - Copyright ORBIFLY December 2007 - Disclaimer

ORBIFLY MET'MAP TEAM :

Programming & Development : Alexandra Zaïnal
Concept & original design : Baudouin d'Aumeries
Assistance for programming : Marc-Olivier Méhu
Technical & hardware support : Manuel Goepfert

Contact : metmap@orbifly.com




SOURCES & CREDITS :

   NOAA